sensor_id;sensor_type;location;lat;lon;timestamp;P1;durP1;ratioP1;P2;durP2;ratioP2
40849;SDS011;26571;41.610;25.380;2024-03-08T00:01:47;11.88;;;10.65;;
40849;SDS011;26571;41.610;25.380;2024-03-08T00:04:13;14.70;;;12.25;;
40849;SDS011;26571;41.610;25.380;2024-03-08T00:09:06;14.98;;;11.30;;
40849;SDS011;26571;41.610;25.380;2024-03-08T00:11:33;13.75;;;11.90;;
40849;SDS011;26571;41.610;25.380;2024-03-08T00:14:00;22.85;;;11.80;;
40849;SDS011;26571;41.610;25.380;2024-03-08T00:16:25;27.45;;;19.77;;
40849;SDS011;26571;41.610;25.380;2024-03-08T00:18:51;191.18;;;103.10;;
40849;SDS011;26571;41.610;25.380;2024-03-08T00:21:16;39.45;;;27.08;;
40849;SDS011;26571;41.610;25.380;2024-03-08T00:23:42;23.40;;;16.38;;
40849;SDS011;26571;41.610;25.380;2024-03-08T00:26:07;15.52;;;12.77;;
40849;SDS011;26571;41.610;25.380;2024-03-08T00:28:36;16.73;;;14.07;;
40849;SDS011;26571;41.610;25.380;2024-03-08T00:31:02;16.27;;;14.30;;
40849;SDS011;26571;41.610;25.380;2024-03-08T00:33:27;22.92;;;15.00;;
40849;SDS011;26571;41.610;25.380;2024-03-08T00:35:53;19.13;;;15.45;;
40849;SDS011;26571;41.610;25.380;2024-03-08T00:38:19;18.70;;;14.30;;
40849;SDS011;26571;41.610;25.380;2024-03-08T00:40:45;19.35;;;16.13;;
40849;SDS011;26571;41.610;25.380;2024-03-08T00:43:10;19.63;;;16.27;;
40849;SDS011;26571;41.610;25.380;2024-03-08T00:45:36;19.45;;;15.00;;
40849;SDS011;26571;41.610;25.380;2024-03-08T00:48:07;23.55;;;17.95;;
40849;SDS011;26571;41.610;25.380;2024-03-08T00:50:33;24.80;;;18.23;;
40849;SDS011;26571;41.610;25.380;2024-03-08T00:52:59;21.63;;;18.30;;
40849;SDS011;26571;41.610;25.380;2024-03-08T00:55:25;23.23;;;17.58;;
40849;SDS011;26571;41.610;25.380;2024-03-08T00:57:51;23.77;;;18.58;;
40849;SDS011;26571;41.610;25.380;2024-03-08T01:00:16;23.75;;;19.30;;
40849;SDS011;26571;41.610;25.380;2024-03-08T01:02:42;26.02;;;18.60;;
40849;SDS011;26571;41.610;25.380;2024-03-08T01:05:07;23.70;;;18.42;;
40849;SDS011;26571;41.610;25.380;2024-03-08T01:07:34;22.92;;;18.90;;
40849;SDS011;26571;41.610;25.380;2024-03-08T01:10:00;26.08;;;21.60;;
40849;SDS011;26571;41.610;25.380;2024-03-08T01:12:27;23.85;;;18.85;;
40849;SDS011;26571;41.610;25.380;2024-03-08T01:14:53;24.52;;;20.48;;
40849;SDS011;26571;41.610;25.380;2024-03-08T01:17:18;22.33;;;19.58;;
40849;SDS011;26571;41.610;25.380;2024-03-08T01:19:44;25.45;;;18.58;;
40849;SDS011;26571;41.610;25.380;2024-03-08T01:22:10;25.65;;;20.70;;
40849;SDS011;26571;41.610;25.380;2024-03-08T01:24:36;27.85;;;21.15;;
40849;SDS011;26571;41.610;25.380;2024-03-08T01:27:02;25.52;;;19.48;;
40849;SDS011;26571;41.610;25.380;2024-03-08T01:29:28;26.35;;;19.10;;
40849;SDS011;26571;41.610;25.380;2024-03-08T01:31:55;23.77;;;20.33;;
40849;SDS011;26571;41.610;25.380;2024-03-08T01:34:21;29.02;;;20.65;;
40849;SDS011;26571;41.610;25.380;2024-03-08T01:36:47;33.85;;;24.30;;
40849;SDS011;26571;41.610;25.380;2024-03-08T01:39:13;30.17;;;23.40;;
40849;SDS011;26571;41.610;25.380;2024-03-08T01:41:39;30.35;;;23.95;;
40849;SDS011;26571;41.610;25.380;2024-03-08T01:44:05;30.27;;;22.27;;
40849;SDS011;26571;41.610;25.380;2024-03-08T01:46:32;26.70;;;21.90;;
40849;SDS011;26571;41.610;25.380;2024-03-08T01:48:59;26.50;;;20.70;;
40849;SDS011;26571;41.610;25.380;2024-03-08T01:51:28;24.77;;;18.83;;
40849;SDS011;26571;41.610;25.380;2024-03-08T01:53:56;28.73;;;19.30;;
40849;SDS011;26571;41.610;25.380;2024-03-08T01:56:24;28.85;;;20.52;;
40849;SDS011;26571;41.610;25.380;2024-03-08T01:58:51;29.83;;;19.80;;
40849;SDS011;26571;41.610;25.380;2024-03-08T02:01:17;27.42;;;18.65;;
40849;SDS011;26571;41.610;25.380;2024-03-08T02:03:44;29.58;;;21.42;;
40849;SDS011;26571;41.610;25.380;2024-03-08T02:06:13;29.27;;;21.02;;
40849;SDS011;26571;41.610;25.380;2024-03-08T02:08:41;31.63;;;23.02;;
40849;SDS011;26571;41.610;25.380;2024-03-08T02:11:08;33.47;;;21.92;;
40849;SDS011;26571;41.610;25.380;2024-03-08T02:13:34;33.40;;;24.98;;
40849;SDS011;26571;41.610;25.380;2024-03-08T02:16:00;35.28;;;22.73;;
40849;SDS011;26571;41.610;25.380;2024-03-08T02:18:26;35.17;;;23.33;;
40849;SDS011;26571;41.610;25.380;2024-03-08T02:20:56;37.17;;;22.40;;
40849;SDS011;26571;41.610;25.380;2024-03-08T02:23:22;31.88;;;23.67;;
40849;SDS011;26571;41.610;25.380;2024-03-08T02:25:52;29.38;;;18.45;;
40849;SDS011;26571;41.610;25.380;2024-03-08T02:28:18;31.13;;;19.75;;
40849;SDS011;26571;41.610;25.380;2024-03-08T02:30:45;32.38;;;20.30;;
40849;SDS011;26571;41.610;25.380;2024-03-08T02:33:15;29.77;;;21.05;;
40849;SDS011;26571;41.610;25.380;2024-03-08T02:35:42;28.83;;;20.08;;
40849;SDS011;26571;41.610;25.380;2024-03-08T02:38:14;29.10;;;20.83;;
40849;SDS011;26571;41.610;25.380;2024-03-08T02:40:47;32.50;;;22.30;;
40849;SDS011;26571;41.610;25.380;2024-03-08T02:43:14;39.53;;;24.45;;
40849;SDS011;26571;41.610;25.380;2024-03-08T02:45:41;32.28;;;20.05;;
40849;SDS011;26571;41.610;25.380;2024-03-08T02:48:10;37.17;;;22.70;;
40849;SDS011;26571;41.610;25.380;2024-03-08T02:50:36;33.47;;;22.65;;
40849;SDS011;26571;41.610;25.380;2024-03-08T02:53:02;35.97;;;24.63;;
40849;SDS011;26571;41.610;25.380;2024-03-08T02:55:28;41.58;;;24.70;;
40849;SDS011;26571;41.610;25.380;2024-03-08T02:57:54;39.90;;;24.55;;
40849;SDS011;26571;41.610;25.380;2024-03-08T03:00:20;37.30;;;23.20;;
40849;SDS011;26571;41.610;25.380;2024-03-08T03:02:51;36.08;;;24.70;;
40849;SDS011;26571;41.610;25.380;2024-03-08T03:05:19;32.55;;;24.17;;
40849;SDS011;26571;41.610;25.380;2024-03-08T03:07:48;29.85;;;21.90;;
40849;SDS011;26571;41.610;25.380;2024-03-08T03:10:14;33.40;;;22.70;;
40849;SDS011;26571;41.610;25.380;2024-03-08T03:12:41;30.33;;;20.15;;
40849;SDS011;26571;41.610;25.380;2024-03-08T03:15:07;32.28;;;24.02;;
40849;SDS011;26571;41.610;25.380;2024-03-08T03:17:33;33.72;;;21.95;;
40849;SDS011;26571;41.610;25.380;2024-03-08T03:19:59;34.30;;;23.55;;
40849;SDS011;26571;41.610;25.380;2024-03-08T03:22:28;30.33;;;22.50;;
40849;SDS011;26571;41.610;25.380;2024-03-08T03:24:55;29.85;;;21.50;;
40849;SDS011;26571;41.610;25.380;2024-03-08T03:27:23;29.38;;;21.45;;
40849;SDS011;26571;41.610;25.380;2024-03-08T03:29:49;31.40;;;21.23;;
40849;SDS011;26571;41.610;25.380;2024-03-08T03:32:17;34.05;;;21.10;;
40849;SDS011;26571;41.610;25.380;2024-03-08T03:34:43;27.33;;;20.35;;
40849;SDS011;26571;41.610;25.380;2024-03-08T03:37:09;29.70;;;21.05;;
40849;SDS011;26571;41.610;25.380;2024-03-08T03:39:37;27.95;;;20.80;;
40849;SDS011;26571;41.610;25.380;2024-03-08T03:42:30;25.60;;;19.92;;
40849;SDS011;26571;41.610;25.380;2024-03-08T03:44:55;30.10;;;21.67;;
40849;SDS011;26571;41.610;25.380;2024-03-08T03:47:21;31.75;;;22.17;;
40849;SDS011;26571;41.610;25.380;2024-03-08T03:49:46;26.67;;;19.85;;
40849;SDS011;26571;41.610;25.380;2024-03-08T03:52:12;29.17;;;20.58;;
40849;SDS011;26571;41.610;25.380;2024-03-08T03:54:37;25.27;;;17.77;;
40849;SDS011;26571;41.610;25.380;2024-03-08T03:57:03;24.50;;;19.33;;
40849;SDS011;26571;41.610;25.380;2024-03-08T03:59:29;27.80;;;19.20;;
40849;SDS011;26571;41.610;25.380;2024-03-08T04:01:55;29.15;;;20.30;;
40849;SDS011;26571;41.610;25.380;2024-03-08T04:04:21;26.65;;;20.13;;
40849;SDS011;26571;41.610;25.380;2024-03-08T04:06:46;25.13;;;18.35;;
40849;SDS011;26571;41.610;25.380;2024-03-08T04:09:12;25.25;;;19.92;;
40849;SDS011;26571;41.610;25.380;2024-03-08T04:11:38;24.48;;;18.50;;
40849;SDS011;26571;41.610;25.380;2024-03-08T04:14:04;25.88;;;17.92;;
40849;SDS011;26571;41.610;25.380;2024-03-08T04:16:30;22.05;;;17.10;;
40849;SDS011;26571;41.610;25.380;2024-03-08T04:18:56;21.15;;;17.27;;
40849;SDS011;26571;41.610;25.380;2024-03-08T04:21:23;24.47;;;17.73;;
40849;SDS011;26571;41.610;25.380;2024-03-08T04:23:48;20.63;;;17.75;;
40849;SDS011;26571;41.610;25.380;2024-03-08T04:26:14;19.80;;;15.95;;
40849;SDS011;26571;41.610;25.380;2024-03-08T04:28:39;25.13;;;17.63;;
40849;SDS011;26571;41.610;25.380;2024-03-08T04:31:04;19.58;;;15.43;;
40849;SDS011;26571;41.610;25.380;2024-03-08T04:33:31;18.63;;;14.88;;
40849;SDS011;26571;41.610;25.380;2024-03-08T04:35:57;20.08;;;17.35;;
40849;SDS011;26571;41.610;25.380;2024-03-08T04:38:23;18.95;;;15.23;;
40849;SDS011;26571;41.610;25.380;2024-03-08T04:40:50;22.98;;;17.83;;
40849;SDS011;26571;41.610;25.380;2024-03-08T04:43:16;22.40;;;16.73;;
40849;SDS011;26571;41.610;25.380;2024-03-08T04:48:09;23.58;;;15.82;;
40849;SDS011;26571;41.610;25.380;2024-03-08T04:50:34;22.50;;;16.40;;
40849;SDS011;26571;41.610;25.380;2024-03-08T04:53:00;16.65;;;14.07;;
40849;SDS011;26571;41.610;25.380;2024-03-08T04:55:25;16.30;;;13.57;;
40849;SDS011;26571;41.610;25.380;2024-03-08T04:57:51;15.73;;;13.77;;
40849;SDS011;26571;41.610;25.380;2024-03-08T05:00:18;15.45;;;13.27;;
40849;SDS011;26571;41.610;25.380;2024-03-08T05:02:44;18.23;;;15.75;;
40849;SDS011;26571;41.610;25.380;2024-03-08T05:05:09;19.55;;;15.27;;
40849;SDS011;26571;41.610;25.380;2024-03-08T05:07:37;17.33;;;13.90;;
40849;SDS011;26571;41.610;25.380;2024-03-08T05:10:04;16.65;;;14.32;;
40849;SDS011;26571;41.610;25.380;2024-03-08T05:14:57;24.13;;;17.02;;
40849;SDS011;26571;41.610;25.380;2024-03-08T05:17:23;21.83;;;16.52;;
40849;SDS011;26571;41.610;25.380;2024-03-08T05:19:49;22.75;;;17.50;;
40849;SDS011;26571;41.610;25.380;2024-03-08T05:22:16;24.05;;;18.73;;
40849;SDS011;26571;41.610;25.380;2024-03-08T05:24:42;22.60;;;16.23;;
40849;SDS011;26571;41.610;25.380;2024-03-08T05:27:08;26.80;;;18.67;;
40849;SDS011;26571;41.610;25.380;2024-03-08T05:29:33;19.98;;;15.75;;
40849;SDS011;26571;41.610;25.380;2024-03-08T05:31:59;24.13;;;15.93;;
40849;SDS011;26571;41.610;25.380;2024-03-08T05:34:24;24.85;;;19.55;;
40849;SDS011;26571;41.610;25.380;2024-03-08T05:36:51;21.27;;;15.73;;
40849;SDS011;26571;41.610;25.380;2024-03-08T05:39:18;22.23;;;17.30;;
40849;SDS011;26571;41.610;25.380;2024-03-08T05:41:47;20.65;;;17.40;;
40849;SDS011;26571;41.610;25.380;2024-03-08T05:44:13;21.20;;;16.92;;
40849;SDS011;26571;41.610;25.380;2024-03-08T05:46:39;58.38;;;31.48;;
40849;SDS011;26571;41.610;25.380;2024-03-08T05:49:05;43.13;;;28.85;;
40849;SDS011;26571;41.610;25.380;2024-03-08T05:51:32;39.40;;;28.10;;
40849;SDS011;26571;41.610;25.380;2024-03-08T05:54:02;30.60;;;23.33;;
40849;SDS011;26571;41.610;25.380;2024-03-08T05:56:30;33.10;;;23.52;;
40849;SDS011;26571;41.610;25.380;2024-03-08T05:58:56;22.65;;;18.20;;
40849;SDS011;26571;41.610;25.380;2024-03-08T06:01:23;22.45;;;17.60;;
40849;SDS011;26571;41.610;25.380;2024-03-08T06:03:49;25.53;;;17.77;;
40849;SDS011;26571;41.610;25.380;2024-03-08T06:06:15;27.55;;;20.58;;
40849;SDS011;26571;41.610;25.380;2024-03-08T06:08:40;27.42;;;19.58;;
40849;SDS011;26571;41.610;25.380;2024-03-08T06:13:33;28.98;;;20.25;;
40849;SDS011;26571;41.610;25.380;2024-03-08T06:16:00;27.35;;;20.63;;
40849;SDS011;26571;41.610;25.380;2024-03-08T06:18:26;25.02;;;20.45;;
40849;SDS011;26571;41.610;25.380;2024-03-08T06:20:51;25.35;;;17.85;;
40849;SDS011;26571;41.610;25.380;2024-03-08T06:23:17;27.90;;;19.45;;
40849;SDS011;26571;41.610;25.380;2024-03-08T06:25:43;24.55;;;17.85;;
40849;SDS011;26571;41.610;25.380;2024-03-08T06:28:09;18.70;;;13.70;;
40849;SDS011;26571;41.610;25.380;2024-03-08T06:30:35;25.55;;;19.30;;
40849;SDS011;26571;41.610;25.380;2024-03-08T06:33:01;28.17;;;19.88;;
40849;SDS011;26571;41.610;25.380;2024-03-08T06:35:26;38.28;;;23.83;;
40849;SDS011;26571;41.610;25.380;2024-03-08T06:37:52;33.30;;;22.55;;
40849;SDS011;26571;41.610;25.380;2024-03-08T06:40:17;41.13;;;25.70;;
40849;SDS011;26571;41.610;25.380;2024-03-08T06:42:43;34.10;;;24.73;;
40849;SDS011;26571;41.610;25.380;2024-03-08T06:45:08;34.50;;;23.63;;
40849;SDS011;26571;41.610;25.380;2024-03-08T06:47:35;34.75;;;24.48;;
40849;SDS011;26571;41.610;25.380;2024-03-08T06:50:01;34.58;;;24.33;;
40849;SDS011;26571;41.610;25.380;2024-03-08T06:52:26;43.00;;;28.98;;
40849;SDS011;26571;41.610;25.380;2024-03-08T06:54:52;40.03;;;25.63;;
40849;SDS011;26571;41.610;25.380;2024-03-08T06:57:18;37.45;;;25.83;;
40849;SDS011;26571;41.610;25.380;2024-03-08T06:59:47;34.85;;;26.52;;
40849;SDS011;26571;41.610;25.380;2024-03-08T07:02:13;37.83;;;26.85;;
40849;SDS011;26571;41.610;25.380;2024-03-08T07:04:38;39.50;;;29.45;;
40849;SDS011;26571;41.610;25.380;2024-03-08T07:07:04;39.88;;;26.70;;
40849;SDS011;26571;41.610;25.380;2024-03-08T07:09:30;38.00;;;24.90;;
40849;SDS011;26571;41.610;25.380;2024-03-08T07:11:57;42.25;;;27.48;;
40849;SDS011;26571;41.610;25.380;2024-03-08T07:14:23;42.35;;;26.17;;
40849;SDS011;26571;41.610;25.380;2024-03-08T07:16:49;43.20;;;29.27;;
40849;SDS011;26571;41.610;25.380;2024-03-08T07:19:15;42.47;;;30.20;;
40849;SDS011;26571;41.610;25.380;2024-03-08T07:21:41;42.42;;;30.90;;
40849;SDS011;26571;41.610;25.380;2024-03-08T07:24:10;39.60;;;28.55;;
40849;SDS011;26571;41.610;25.380;2024-03-08T07:26:42;36.72;;;27.23;;
40849;SDS011;26571;41.610;25.380;2024-03-08T07:29:08;41.77;;;29.13;;
40849;SDS011;26571;41.610;25.380;2024-03-08T07:31:34;40.40;;;27.95;;
40849;SDS011;26571;41.610;25.380;2024-03-08T07:34:02;44.85;;;30.77;;
40849;SDS011;26571;41.610;25.380;2024-03-08T07:36:28;43.75;;;30.80;;
40849;SDS011;26571;41.610;25.380;2024-03-08T07:38:57;41.45;;;30.55;;
40849;SDS011;26571;41.610;25.380;2024-03-08T07:41:30;43.40;;;31.70;;
40849;SDS011;26571;41.610;25.380;2024-03-08T07:43:56;41.47;;;31.88;;
40849;SDS011;26571;41.610;25.380;2024-03-08T07:46:21;41.05;;;26.73;;
40849;SDS011;26571;41.610;25.380;2024-03-08T07:48:48;46.70;;;30.00;;
40849;SDS011;26571;41.610;25.380;2024-03-08T07:51:15;38.15;;;27.95;;
40849;SDS011;26571;41.610;25.380;2024-03-08T07:53:42;32.72;;;25.35;;
40849;SDS011;26571;41.610;25.380;2024-03-08T07:56:08;32.75;;;25.95;;
40849;SDS011;26571;41.610;25.380;2024-03-08T07:58:38;34.22;;;26.95;;
40849;SDS011;26571;41.610;25.380;2024-03-08T08:01:05;31.70;;;24.45;;
40849;SDS011;26571;41.610;25.380;2024-03-08T08:03:31;28.75;;;22.35;;
40849;SDS011;26571;41.610;25.380;2024-03-08T08:05:56;26.13;;;20.75;;
40849;SDS011;26571;41.610;25.380;2024-03-08T08:08:22;20.98;;;16.83;;
40849;SDS011;26571;41.610;25.380;2024-03-08T08:10:47;22.38;;;18.35;;
40849;SDS011;26571;41.610;25.380;2024-03-08T08:13:13;20.98;;;16.48;;
40849;SDS011;26571;41.610;25.380;2024-03-08T08:15:38;18.10;;;15.95;;
40849;SDS011;26571;41.610;25.380;2024-03-08T08:18:04;15.93;;;14.20;;
40849;SDS011;26571;41.610;25.380;2024-03-08T08:20:30;16.87;;;15.10;;
40849;SDS011;26571;41.610;25.380;2024-03-08T08:22:56;16.60;;;14.88;;
40849;SDS011;26571;41.610;25.380;2024-03-08T08:25:23;20.92;;;16.08;;
40849;SDS011;26571;41.610;25.380;2024-03-08T08:27:49;21.60;;;15.98;;
40849;SDS011;26571;41.610;25.380;2024-03-08T08:30:15;19.25;;;16.13;;
40849;SDS011;26571;41.610;25.380;2024-03-08T08:32:41;24.45;;;18.42;;
40849;SDS011;26571;41.610;25.380;2024-03-08T08:35:09;24.20;;;19.48;;
40849;SDS011;26571;41.610;25.380;2024-03-08T08:37:38;23.42;;;17.83;;
40849;SDS011;26571;41.610;25.380;2024-03-08T08:40:04;27.48;;;20.65;;
40849;SDS011;26571;41.610;25.380;2024-03-08T08:42:39;24.67;;;18.95;;
40849;SDS011;26571;41.610;25.380;2024-03-08T08:45:06;22.17;;;18.13;;
40849;SDS011;26571;41.610;25.380;2024-03-08T08:47:37;23.45;;;19.05;;
40849;SDS011;26571;41.610;25.380;2024-03-08T08:50:03;25.67;;;19.77;;
40849;SDS011;26571;41.610;25.380;2024-03-08T08:52:30;22.55;;;17.90;;
40849;SDS011;26571;41.610;25.380;2024-03-08T08:54:56;22.95;;;19.13;;
40849;SDS011;26571;41.610;25.380;2024-03-08T08:57:22;21.15;;;18.48;;
40849;SDS011;26571;41.610;25.380;2024-03-08T08:59:47;22.80;;;19.00;;
40849;SDS011;26571;41.610;25.380;2024-03-08T09:02:13;20.42;;;16.48;;
40849;SDS011;26571;41.610;25.380;2024-03-08T09:04:39;27.63;;;21.58;;
40849;SDS011;26571;41.610;25.380;2024-03-08T09:07:05;29.88;;;18.55;;
40849;SDS011;26571;41.610;25.380;2024-03-08T09:09:31;20.38;;;17.27;;
40849;SDS011;26571;41.610;25.380;2024-03-08T09:11:57;20.67;;;16.77;;
40849;SDS011;26571;41.610;25.380;2024-03-08T09:14:23;26.80;;;17.02;;
40849;SDS011;26571;41.610;25.380;2024-03-08T09:16:51;19.85;;;17.33;;
40849;SDS011;26571;41.610;25.380;2024-03-08T09:19:16;21.38;;;16.27;;
40849;SDS011;26571;41.610;25.380;2024-03-08T09:21:42;19.60;;;15.38;;
40849;SDS011;26571;41.610;25.380;2024-03-08T09:24:07;18.20;;;16.40;;
40849;SDS011;26571;41.610;25.380;2024-03-08T09:26:33;14.68;;;13.15;;
40849;SDS011;26571;41.610;25.380;2024-03-08T09:28:59;16.80;;;14.43;;
40849;SDS011;26571;41.610;25.380;2024-03-08T09:31:24;18.48;;;16.10;;
40849;SDS011;26571;41.610;25.380;2024-03-08T09:33:51;19.80;;;16.75;;
40849;SDS011;26571;41.610;25.380;2024-03-08T09:36:16;18.52;;;14.23;;
40849;SDS011;26571;41.610;25.380;2024-03-08T09:38:42;21.60;;;15.80;;
40849;SDS011;26571;41.610;25.380;2024-03-08T09:41:09;19.17;;;14.38;;
40849;SDS011;26571;41.610;25.380;2024-03-08T09:43:35;16.40;;;13.25;;
40849;SDS011;26571;41.610;25.380;2024-03-08T09:46:02;16.65;;;14.68;;
40849;SDS011;26571;41.610;25.380;2024-03-08T09:48:31;18.65;;;14.85;;
40849;SDS011;26571;41.610;25.380;2024-03-08T09:50:56;18.20;;;16.30;;
40849;SDS011;26571;41.610;25.380;2024-03-08T09:53:22;21.98;;;16.50;;
40849;SDS011;26571;41.610;25.380;2024-03-08T09:55:48;15.48;;;13.95;;
40849;SDS011;26571;41.610;25.380;2024-03-08T09:58:14;15.73;;;14.13;;
40849;SDS011;26571;41.610;25.380;2024-03-08T10:00:42;12.18;;;10.77;;
40849;SDS011;26571;41.610;25.380;2024-03-08T10:03:08;12.90;;;11.55;;
40849;SDS011;26571;41.610;25.380;2024-03-08T10:05:34;14.38;;;12.73;;
40849;SDS011;26571;41.610;25.380;2024-03-08T10:08:00;13.18;;;11.77;;
40849;SDS011;26571;41.610;25.380;2024-03-08T10:10:25;14.60;;;11.20;;
40849;SDS011;26571;41.610;25.380;2024-03-08T10:12:51;14.45;;;12.50;;
40849;SDS011;26571;41.610;25.380;2024-03-08T10:15:17;13.32;;;12.02;;
40849;SDS011;26571;41.610;25.380;2024-03-08T10:17:43;12.88;;;11.57;;
40849;SDS011;26571;41.610;25.380;2024-03-08T10:20:15;15.40;;;13.38;;
40849;SDS011;26571;41.610;25.380;2024-03-08T10:22:42;16.92;;;14.90;;
40849;SDS011;26571;41.610;25.380;2024-03-08T10:25:09;16.92;;;13.27;;
40849;SDS011;26571;41.610;25.380;2024-03-08T10:27:37;15.57;;;12.95;;
40849;SDS011;26571;41.610;25.380;2024-03-08T10:32:31;14.13;;;12.57;;
40849;SDS011;26571;41.610;25.380;2024-03-08T10:34:56;15.50;;;12.50;;
40849;SDS011;26571;41.610;25.380;2024-03-08T10:37:22;15.02;;;13.48;;
40849;SDS011;26571;41.610;25.380;2024-03-08T10:40:01;12.65;;;11.45;;
40849;SDS011;26571;41.610;25.380;2024-03-08T10:42:35;13.70;;;12.30;;
40849;SDS011;26571;41.610;25.380;2024-03-08T10:45:19;13.65;;;11.88;;
40849;SDS011;26571;41.610;25.380;2024-03-08T10:50:48;12.35;;;10.63;;
40849;SDS011;26571;41.610;25.380;2024-03-08T10:53:17;13.27;;;11.63;;
40849;SDS011;26571;41.610;25.380;2024-03-08T10:55:46;10.52;;;9.48;;
40849;SDS011;26571;41.610;25.380;2024-03-08T10:58:12;10.02;;;9.02;;
40849;SDS011;26571;41.610;25.380;2024-03-08T11:00:37;11.35;;;10.15;;
40849;SDS011;26571;41.610;25.380;2024-03-08T11:03:04;11.65;;;10.55;;
40849;SDS011;26571;41.610;25.380;2024-03-08T11:05:39;10.98;;;9.88;;
40849;SDS011;26571;41.610;25.380;2024-03-08T11:10:47;10.23;;;9.25;;
40849;SDS011;26571;41.610;25.380;2024-03-08T11:16:09;9.95;;;8.95;;
40849;SDS011;26571;41.610;25.380;2024-03-08T11:18:36;10.10;;;8.75;;
40849;SDS011;26571;41.610;25.380;2024-03-08T11:21:06;10.23;;;9.35;;
40849;SDS011;26571;41.610;25.380;2024-03-08T11:23:37;9.70;;;8.77;;
40849;SDS011;26571;41.610;25.380;2024-03-08T11:26:17;11.00;;;9.90;;
40849;SDS011;26571;41.610;25.380;2024-03-08T11:28:46;9.70;;;8.88;;
40849;SDS011;26571;41.610;25.380;2024-03-08T11:33:39;10.68;;;9.68;;
40849;SDS011;26571;41.610;25.380;2024-03-08T11:36:12;10.32;;;9.18;;
40849;SDS011;26571;41.610;25.380;2024-03-08T11:38:47;9.98;;;8.98;;
40849;SDS011;26571;41.610;25.380;2024-03-08T11:41:14;8.85;;;8.05;;
40849;SDS011;26571;41.610;25.380;2024-03-08T11:43:43;8.48;;;7.53;;
40849;SDS011;26571;41.610;25.380;2024-03-08T11:46:09;9.70;;;8.83;;
40849;SDS011;26571;41.610;25.380;2024-03-08T11:48:38;10.63;;;9.63;;
40849;SDS011;26571;41.610;25.380;2024-03-08T11:51:06;7.78;;;7.03;;
40849;SDS011;26571;41.610;25.380;2024-03-08T11:53:33;10.68;;;7.82;;
40849;SDS011;26571;41.610;25.380;2024-03-08T11:56:06;9.90;;;9.02;;
40849;SDS011;26571;41.610;25.380;2024-03-08T11:58:32;18.13;;;14.25;;
40849;SDS011;26571;41.610;25.380;2024-03-08T12:01:07;16.02;;;10.65;;
40849;SDS011;26571;41.610;25.380;2024-03-08T12:03:38;9.60;;;7.43;;
40849;SDS011;26571;41.610;25.380;2024-03-08T12:06:04;19.83;;;13.77;;
40849;SDS011;26571;41.610;25.380;2024-03-08T12:08:30;14.82;;;9.82;;
40849;SDS011;26571;41.610;25.380;2024-03-08T12:10:57;9.88;;;8.68;;
40849;SDS011;26571;41.610;25.380;2024-03-08T12:13:26;32.95;;;22.02;;
40849;SDS011;26571;41.610;25.380;2024-03-08T12:15:57;14.10;;;12.80;;
40849;SDS011;26571;41.610;25.380;2024-03-08T12:18:24;11.18;;;10.18;;
40849;SDS011;26571;41.610;25.380;2024-03-08T12:20:51;59.83;;;35.95;;
40849;SDS011;26571;41.610;25.380;2024-03-08T12:23:17;14.13;;;12.50;;
40849;SDS011;26571;41.610;25.380;2024-03-08T12:25:43;12.75;;;9.80;;
40849;SDS011;26571;41.610;25.380;2024-03-08T12:28:12;10.23;;;9.32;;
40849;SDS011;26571;41.610;25.380;2024-03-08T12:30:48;10.27;;;9.38;;
40849;SDS011;26571;41.610;25.380;2024-03-08T12:33:16;14.18;;;10.48;;
40849;SDS011;26571;41.610;25.380;2024-03-08T12:35:49;18.58;;;13.93;;
40849;SDS011;26571;41.610;25.380;2024-03-08T12:38:19;12.18;;;10.93;;
40849;SDS011;26571;41.610;25.380;2024-03-08T12:40:50;8.50;;;7.63;;
40849;SDS011;26571;41.610;25.380;2024-03-08T12:43:15;12.70;;;9.70;;
40849;SDS011;26571;41.610;25.380;2024-03-08T12:45:41;13.05;;;11.25;;
40849;SDS011;26571;41.610;25.380;2024-03-08T12:48:12;14.00;;;11.80;;
40849;SDS011;26571;41.610;25.380;2024-03-08T12:50:41;10.07;;;9.13;;
40849;SDS011;26571;41.610;25.380;2024-03-08T12:53:12;11.05;;;9.95;;
40849;SDS011;26571;41.610;25.380;2024-03-08T12:55:38;9.90;;;9.00;;
40849;SDS011;26571;41.610;25.380;2024-03-08T12:58:05;11.07;;;9.93;;
40849;SDS011;26571;41.610;25.380;2024-03-08T13:00:32;12.50;;;9.60;;
40849;SDS011;26571;41.610;25.380;2024-03-08T13:03:08;10.00;;;9.13;;
40849;SDS011;26571;41.610;25.380;2024-03-08T13:05:36;15.73;;;14.00;;
40849;SDS011;26571;41.610;25.380;2024-03-08T13:08:05;9.65;;;8.25;;
40849;SDS011;26571;41.610;25.380;2024-03-08T13:10:32;10.18;;;9.27;;
40849;SDS011;26571;41.610;25.380;2024-03-08T13:12:57;11.40;;;10.20;;
40849;SDS011;26571;41.610;25.380;2024-03-08T13:15:23;9.77;;;8.82;;
40849;SDS011;26571;41.610;25.380;2024-03-08T13:17:51;8.77;;;8.00;;
40849;SDS011;26571;41.610;25.380;2024-03-08T13:20:34;11.25;;;10.13;;
40849;SDS011;26571;41.610;25.380;2024-03-08T13:23:02;10.18;;;9.27;;
40849;SDS011;26571;41.610;25.380;2024-03-08T13:25:32;17.73;;;14.73;;
40849;SDS011;26571;41.610;25.380;2024-03-08T13:27:57;10.63;;;8.52;;
40849;SDS011;26571;41.610;25.380;2024-03-08T13:30:25;8.10;;;7.40;;
40849;SDS011;26571;41.610;25.380;2024-03-08T13:33:05;10.00;;;9.10;;
40849;SDS011;26571;41.610;25.380;2024-03-08T13:35:32;11.60;;;10.40;;
40849;SDS011;26571;41.610;25.380;2024-03-08T13:38:00;16.40;;;12.70;;
40849;SDS011;26571;41.610;25.380;2024-03-08T13:40:29;7.60;;;6.80;;
40849;SDS011;26571;41.610;25.380;2024-03-08T13:42:56;7.05;;;6.45;;
40849;SDS011;26571;41.610;25.380;2024-03-08T13:45:21;7.03;;;6.43;;
40849;SDS011;26571;41.610;25.380;2024-03-08T13:47:48;7.50;;;5.43;;
40849;SDS011;26571;41.610;25.380;2024-03-08T13:50:16;9.57;;;8.68;;
40849;SDS011;26571;41.610;25.380;2024-03-08T13:52:46;9.52;;;8.30;;
40849;SDS011;26571;41.610;25.380;2024-03-08T13:55:19;7.82;;;6.88;;
40849;SDS011;26571;41.610;25.380;2024-03-08T13:57:50;8.27;;;7.47;;
40849;SDS011;26571;41.610;25.380;2024-03-08T14:00:18;4.72;;;4.43;;
40849;SDS011;26571;41.610;25.380;2024-03-08T14:02:48;5.18;;;4.78;;
40849;SDS011;26571;41.610;25.380;2024-03-08T14:05:14;5.85;;;5.25;;
40849;SDS011;26571;41.610;25.380;2024-03-08T14:07:41;5.22;;;4.75;;
40849;SDS011;26571;41.610;25.380;2024-03-08T14:10:06;10.02;;;6.70;;
40849;SDS011;26571;41.610;25.380;2024-03-08T14:12:34;5.65;;;5.25;;
40849;SDS011;26571;41.610;25.380;2024-03-08T14:15:00;6.65;;;6.15;;
40849;SDS011;26571;41.610;25.380;2024-03-08T14:17:26;6.70;;;6.20;;
40849;SDS011;26571;41.610;25.380;2024-03-08T14:19:52;7.00;;;6.55;;
40849;SDS011;26571;41.610;25.380;2024-03-08T14:22:18;8.05;;;7.25;;
40849;SDS011;26571;41.610;25.380;2024-03-08T14:24:47;7.60;;;6.95;;
40849;SDS011;26571;41.610;25.380;2024-03-08T14:27:14;6.95;;;6.47;;
40849;SDS011;26571;41.610;25.380;2024-03-08T14:29:42;8.18;;;7.53;;
40849;SDS011;26571;41.610;25.380;2024-03-08T14:32:08;6.40;;;5.88;;
40849;SDS011;26571;41.610;25.380;2024-03-08T14:34:38;4.35;;;4.05;;
40849;SDS011;26571;41.610;25.380;2024-03-08T14:37:07;5.55;;;5.15;;